Time;durP1;ratioP1;P1;durP2;ratioP2;P2;SDS_P1;SDS_P2;PMS_P1;PMS_P2;Temp;Humidity;BMP_temperature;BMP_pressure;BME280_temperature;BME280_humidity;BME280_pressure;Samples;Min_cycle;Max_cycle;Signal;HPM_P1;HPM_P2
2022/07/23 00:01:20;;;;;;;4.70;2.05;;;15.10;99.90;;;;;;5084277;28;20047;-76
2022/07/23 00:03:46;;;;;;;4.97;1.70;;;15.10;99.90;;;;;;5065203;28;20064;-76
2022/07/23 00:06:12;;;;;;;4.68;1.75;;;15.20;99.90;;;;;;5065670;28;20471;-76
2022/07/23 00:08:38;;;;;;;4.93;1.60;;;15.10;99.90;;;;;;5084164;28;20123;-77
2022/07/23 00:11:04;;;;;;;3.72;1.65;;;15.10;99.90;;;;;;5048608;28;20123;-76
2022/07/23 00:13:29;;;;;;;3.20;1.25;;;15.10;99.90;;;;;;5066406;28;20170;-76
2022/07/23 00:15:55;;;;;;;5.05;1.70;;;15.10;99.90;;;;;;5083661;28;20126;-77
2022/07/23 00:18:21;;;;;;;4.57;1.40;;;15.10;99.90;;;;;;5073372;28;20052;-76
2022/07/23 00:20:47;;;;;;;4.38;1.65;;;15.00;99.90;;;;;;5076168;28;20063;-75
2022/07/23 00:23:13;;;;;;;4.57;1.70;;;15.00;99.90;;;;;;5073251;28;20416;-76
2022/07/23 00:25:39;;;;;;;5.40;1.50;;;15.00;99.90;;;;;;5057564;28;20063;-75
2022/07/23 00:28:05;;;;;;;4.55;1.40;;;15.00;99.90;;;;;;5073529;28;20043;-75
2022/07/23 00:30:32;;;;;;;5.00;1.50;;;15.00;99.90;;;;;;5091398;28;20055;-76
2022/07/23 00:33:01;;;;;;;4.47;1.52;;;14.90;99.90;;;;;;5057396;28;20105;-77
2022/07/23 00:35:30;;;;;;;5.85;1.70;;;15.00;99.90;;;;;;5090625;28;20426;-76
2022/07/23 00:37:56;;;;;;;4.32;1.50;;;15.00;99.90;;;;;;5071507;28;20059;-76
2022/07/23 00:40:22;;;;;;;4.25;1.70;;;14.90;99.90;;;;;;5091832;28;20116;-76
2022/07/23 00:42:48;;;;;;;4.88;2.08;;;14.90;99.90;;;;;;5071204;28;20437;-76
2022/07/23 00:45:14;;;;;;;3.58;1.40;;;14.90;99.90;;;;;;5073222;28;20096;-76
2022/07/23 00:47:40;;;;;;;3.67;1.30;;;14.90;99.90;;;;;;5072875;28;20086;-78
2022/07/23 00:50:08;;;;;;;4.20;1.60;;;14.90;99.90;;;;;;5056803;28;20050;-76
2022/07/23 00:52:35;;;;;;;5.38;1.60;;;14.90;99.90;;;;;;5071102;28;20491;-76
2022/07/23 00:55:01;;;;;;;3.95;1.60;;;14.90;99.90;;;;;;5073823;28;20100;-76
2022/07/23 00:57:27;;;;;;;4.93;1.80;;;14.90;99.90;;;;;;5056895;28;20056;-78
2022/07/23 00:59:53;;;;;;;4.97;1.75;;;14.90;99.90;;;;;;5073826;28;20054;-75
2022/07/23 01:02:19;;;;;;;5.80;1.65;;;14.90;99.90;;;;;;5072009;28;20087;-76
2022/07/23 01:04:45;;;;;;;6.60;2.20;;;14.80;99.90;;;;;;5075305;28;20047;-76
2022/07/23 01:07:11;;;;;;;5.72;2.10;;;14.80;99.90;;;;;;5072109;28;20496;-76
2022/07/23 01:09:37;;;;;;;5.38;2.13;;;14.70;99.90;;;;;;5073834;28;20071;-76
2022/07/23 01:12:04;;;;;;;4.82;2.22;;;14.70;99.90;;;;;;5056523;28;20048;-76
2022/07/23 01:14:29;;;;;;;4.70;1.80;;;14.70;99.90;;;;;;5072937;28;20201;-76
2022/07/23 01:16:55;;;;;;;4.93;2.65;;;14.70;99.90;;;;;;5091794;28;20526;-75
2022/07/23 01:19:21;;;;;;;4.90;1.80;;;14.70;99.90;;;;;;5072182;28;20078;-76
2022/07/23 01:21:49;;;;;;;5.25;1.88;;;14.70;99.90;;;;;;5073833;28;20056;-76
2022/07/23 01:24:15;;;;;;;7.00;3.05;;;14.70;99.90;;;;;;5074021;28;20048;-76
2022/07/23 01:26:44;;;;;;;6.25;2.97;;;14.70;99.90;;;;;;5040101;28;20050;-75
2022/07/23 01:29:11;;;;;;;6.05;2.40;;;14.70;99.90;;;;;;5058990;28;20406;-76
2022/07/23 01:31:36;;;;;;;5.00;1.98;;;14.70;99.90;;;;;;5090427;28;20096;-77
2022/07/23 01:34:02;;;;;;;7.68;2.97;;;14.70;99.90;;;;;;5071200;28;20499;-76
2022/07/23 01:36:28;;;;;;;8.23;3.53;;;14.70;99.90;;;;;;5073253;28;20044;-76
2022/07/23 01:38:54;;;;;;;5.32;2.42;;;14.70;99.90;;;;;;5072994;28;20115;-76
2022/07/23 01:41:20;;;;;;;6.55;3.85;;;14.70;99.90;;;;;;5090555;28;20079;-76
2022/07/23 01:43:46;;;;;;;7.32;4.60;;;14.60;99.90;;;;;;5056370;28;20509;-76
2022/07/23 01:46:11;;;;;;;5.95;3.30;;;14.50;99.90;;;;;;5074855;28;20105;-76
2022/07/23 01:48:37;;;;;;;6.55;3.55;;;14.50;99.90;;;;;;5070833;28;20083;-75
2022/07/23 01:51:03;;;;;;;5.25;2.63;;;14.50;99.90;;;;;;5071662;28;20483;-76
2022/07/23 01:53:31;;;;;;;5.65;2.92;;;14.40;99.90;;;;;;5068383;28;20066;-77
2022/07/23 01:55:57;;;;;;;6.10;2.67;;;14.40;99.90;;;;;;5047883;28;20115;-78
2022/07/23 01:58:24;;;;;;;7.25;3.00;;;14.30;99.90;;;;;;5074200;28;20407;-76
2022/07/23 02:00:49;;;;;;;5.90;2.25;;;14.30;99.90;;;;;;5072940;28;20059;-77
2022/07/23 02:03:15;;;;;;;4.43;2.00;;;14.20;99.90;;;;;;5070207;28;20671;-76
2022/07/23 02:05:41;;;;;;;5.15;1.90;;;14.20;99.90;;;;;;5072364;28;20047;-77
2022/07/23 02:08:06;;;;;;;5.07;1.90;;;14.20;99.90;;;;;;5069834;28;20052;-76
2022/07/23 02:10:32;;;;;;;4.85;2.20;;;14.20;99.90;;;;;;5055813;28;20072;-76
2022/07/23 02:12:58;;;;;;;4.95;2.00;;;14.30;99.90;;;;;;5072576;28;20050;-76
2022/07/23 02:15:24;;;;;;;5.00;2.00;;;14.30;99.90;;;;;;5072821;28;20048;-76
2022/07/23 02:17:49;;;;;;;6.80;2.60;;;14.30;99.90;;;;;;5089422;28;20487;-76
2022/07/23 02:20:15;;;;;;;4.93;2.10;;;14.30;99.90;;;;;;5072702;28;20482;-76
2022/07/23 02:22:41;;;;;;;4.35;1.92;;;14.20;99.90;;;;;;5070367;28;20051;-76
2022/07/23 02:25:08;;;;;;;4.85;2.20;;;14.20;99.90;;;;;;5074634;28;20040;-76
2022/07/23 02:27:34;;;;;;;4.35;1.90;;;14.30;99.90;;;;;;5071240;28;20044;-76
2022/07/23 02:30:00;;;;;;;5.15;1.85;;;14.20;99.90;;;;;;5091697;28;20063;-76
2022/07/23 02:32:26;;;;;;;5.28;2.55;;;14.20;99.90;;;;;;5075467;28;20052;-75
2022/07/23 02:34:52;;;;;;;4.85;2.20;;;14.20;99.90;;;;;;5073212;28;20043;-75
2022/07/23 02:37:18;;;;;;;4.90;2.03;;;14.20;99.90;;;;;;5075952;28;20134;-76
2022/07/23 02:39:44;;;;;;;5.03;2.10;;;14.10;99.90;;;;;;5074709;28;20479;-76
2022/07/23 02:42:10;;;;;;;5.38;1.95;;;14.10;99.90;;;;;;5076251;28;20138;-76
2022/07/23 02:44:35;;;;;;;5.60;1.92;;;14.10;99.90;;;;;;5077285;28;20131;-76
2022/07/23 02:47:01;;;;;;;6.05;1.90;;;14.00;99.90;;;;;;5074479;28;20574;-78
2022/07/23 02:49:27;;;;;;;5.45;1.88;;;14.00;99.90;;;;;;5074948;28;20124;-76
2022/07/23 02:51:53;;;;;;;5.18;2.00;;;14.00;99.90;;;;;;5076217;28;20112;-76
2022/07/23 02:54:19;;;;;;;5.88;2.08;;;14.00;99.90;;;;;;5075350;28;20040;-76
2022/07/23 02:56:45;;;;;;;5.05;2.00;;;14.00;99.90;;;;;;5075782;28;20048;-76
2022/07/23 02:59:10;;;;;;;6.25;1.98;;;13.90;99.90;;;;;;5058753;28;20583;-75
2022/07/23 03:01:36;;;;;;;4.80;1.80;;;13.90;99.90;;;;;;5092930;28;20040;-76
2022/07/23 03:04:02;;;;;;;4.50;1.73;;;13.90;99.90;;;;;;5075022;28;20044;-76
2022/07/23 03:06:27;;;;;;;5.38;1.95;;;13.90;99.90;;;;;;5093621;28;20052;-77
2022/07/23 03:08:53;;;;;;;4.57;2.15;;;13.90;99.90;;;;;;5058283;28;20073;-75
2022/07/23 03:11:19;;;;;;;4.40;2.03;;;13.90;99.90;;;;;;5074962;28;20497;-75
2022/07/23 03:13:44;;;;;;;4.85;2.13;;;13.90;99.90;;;;;;5075055;28;20048;-77
2022/07/23 03:16:10;;;;;;;5.45;2.15;;;13.80;99.90;;;;;;5059753;28;20048;-75
2022/07/23 03:18:36;;;;;;;5.38;2.30;;;13.80;99.90;;;;;;5092595;28;20062;-74
2022/07/23 03:21:03;;;;;;;5.68;2.55;;;13.70;99.90;;;;;;5074347;28;20059;-76
2022/07/23 03:23:29;;;;;;;4.03;2.20;;;13.70;99.90;;;;;;5074454;28;20197;-76
2022/07/23 03:25:54;;;;;;;6.65;2.72;;;13.60;99.90;;;;;;5093005;28;20576;-74
2022/07/23 03:28:20;;;;;;;4.50;1.83;;;13.60;99.90;;;;;;5075416;28;20055;-75
2022/07/23 03:30:47;;;;;;;5.18;2.65;;;13.60;99.90;;;;;;5073053;28;20510;-77
2022/07/23 03:33:13;;;;;;;4.47;2.10;;;13.60;99.90;;;;;;5070527;28;20080;-75
2022/07/23 03:35:39;;;;;;;7.18;2.72;;;13.50;99.90;;;;;;5074232;28;20056;-76
2022/07/23 03:38:05;;;;;;;5.53;2.70;;;13.50;99.90;;;;;;5075473;28;20044;-76
2022/07/23 03:40:31;;;;;;;5.30;3.20;;;13.50;99.90;;;;;;5074979;28;20745;-75
2022/07/23 03:42:56;;;;;;;5.45;3.05;;;13.40;99.90;;;;;;5074220;28;20105;-75
2022/07/23 03:45:22;;;;;;;9.43;4.90;;;13.30;99.90;;;;;;5075689;28;20048;-73
2022/07/23 03:47:48;;;;;;;8.77;4.40;;;13.30;99.90;;;;;;5091104;28;20090;-75
2022/07/23 03:50:14;;;;;;;6.50;2.92;;;13.10;99.90;;;;;;5074858;28;20036;-77
2022/07/23 03:52:40;;;;;;;8.18;4.13;;;13.10;99.90;;;;;;5072563;28;20051;-78
2022/07/23 03:55:06;;;;;;;5.07;2.60;;;13.10;99.90;;;;;;5074169;28;20048;-76
2022/07/23 03:57:32;;;;;;;8.98;2.72;;;13.10;99.90;;;;;;5074626;28;20098;-77
2022/07/23 03:59:58;;;;;;;5.85;2.60;;;13.10;99.90;;;;;;5092447;28;20486;-75
2022/07/23 04:02:23;;;;;;;10.15;5.22;;;13.10;99.90;;;;;;5073236;28;20032;-73
2022/07/23 04:04:49;;;;;;;8.40;5.40;;;13.10;99.90;;;;;;5072491;28;20059;-75
2022/07/23 04:07:15;;;;;;;7.50;3.65;;;13.00;99.90;;;;;;5069976;28;20476;-74
2022/07/23 04:09:41;;;;;;;5.50;2.63;;;12.90;99.90;;;;;;5045689;28;20079;-75
2022/07/23 04:12:07;;;;;;;6.88;3.22;;;12.80;99.90;;;;;;5064049;28;20087;-78
2022/07/23 04:14:33;;;;;;;7.43;4.15;;;12.90;99.90;;;;;;5065610;28;20493;-76
2022/07/23 04:16:59;;;;;;;7.25;4.13;;;12.90;99.90;;;;;;5061906;28;20093;-74
2022/07/23 04:19:26;;;;;;;7.97;4.28;;;12.90;99.90;;;;;;5069665;28;20052;-75
2022/07/23 04:21:52;;;;;;;5.05;2.63;;;12.90;99.90;;;;;;5071720;28;20052;-81
2022/07/23 04:24:18;;;;;;;5.88;3.20;;;12.90;99.90;;;;;;5062372;28;20411;-74
2022/07/23 04:26:44;;;;;;;8.13;4.38;;;12.90;99.90;;;;;;5062193;28;20051;-75
2022/07/23 04:29:10;;;;;;;6.35;3.60;;;12.90;99.90;;;;;;5055883;28;20066;-76
2022/07/23 04:31:36;;;;;;;9.50;5.55;;;12.80;99.90;;;;;;5064572;28;20052;-74
2022/07/23 04:34:01;;;;;;;6.32;3.30;;;12.80;99.90;;;;;;5060990;28;20399;-78
2022/07/23 04:36:27;;;;;;;7.05;4.13;;;12.80;99.90;;;;;;5063570;28;20054;-74
2022/07/23 04:38:54;;;;;;;5.90;3.63;;;12.80;99.90;;;;;;5071783;28;20047;-75
2022/07/23 04:41:19;;;;;;;5.72;3.08;;;12.80;99.90;;;;;;5052280;28;20052;-75
2022/07/23 04:43:45;;;;;;;6.80;3.78;;;12.80;99.90;;;;;;5071158;28;20048;-75
2022/07/23 04:46:11;;;;;;;8.05;4.18;;;12.90;99.90;;;;;;5061025;28;20325;-75
2022/07/23 04:48:37;;;;;;;5.30;2.70;;;12.90;99.90;;;;;;5070629;28;20052;-74
2022/07/23 04:51:03;;;;;;;6.25;2.55;;;12.90;99.90;;;;;;5047728;28;20436;-76
2022/07/23 04:53:29;;;;;;;6.20;2.55;;;13.00;99.90;;;;;;5062094;28;20044;-78
2022/07/23 04:55:55;;;;;;;6.43;3.85;;;13.00;99.90;;;;;;5054025;28;20040;-76
2022/07/23 04:58:20;;;;;;;8.27;4.63;;;12.90;99.90;;;;;;5044560;28;20467;-75
2022/07/23 05:00:46;;;;;;;7.35;4.78;;;13.00;99.90;;;;;;5070976;28;20048;-75
2022/07/23 05:03:12;;;;;;;8.60;5.38;;;13.00;99.90;;;;;;5052881;28;20127;-76
2022/07/23 05:05:38;;;;;;;10.82;5.72;;;13.00;99.90;;;;;;5063795;28;20115;-74
2022/07/23 05:08:04;;;;;;;7.25;5.57;;;13.10;99.90;;;;;;5059144;28;20386;-75
2022/07/23 05:10:30;;;;;;;8.00;5.50;;;13.50;99.90;;;;;;5061047;28;20048;-74
2022/07/23 05:12:56;;;;;;;8.88;5.68;;;13.80;99.90;;;;;;5069934;28;20086;-74
2022/07/23 05:15:22;;;;;;;7.70;4.65;;;14.30;99.90;;;;;;5062528;28;20049;-76
2022/07/23 05:17:48;;;;;;;7.90;5.38;;;14.80;99.90;;;;;;5060606;28;20505;-75
2022/07/23 05:20:14;;;;;;;8.20;4.47;;;15.40;99.90;;;;;;5059027;28;20036;-75
2022/07/23 05:22:40;;;;;;;8.68;4.63;;;16.00;99.90;;;;;;5063153;28;20044;-74
2022/07/23 05:25:06;;;;;;;7.78;4.30;;;16.70;99.90;;;;;;5059120;28;20045;-74
2022/07/23 05:27:32;;;;;;;7.75;4.30;;;17.10;99.90;;;;;;5030967;28;20060;-76
2022/07/23 05:29:58;;;;;;;11.38;3.80;;;18.10;99.90;;;;;;5053613;28;20055;-75
2022/07/23 05:32:23;;;;;;;8.38;3.70;;;18.50;99.90;;;;;;5069282;28;20113;-75
2022/07/23 05:34:49;;;;;;;8.63;3.80;;;19.30;99.90;;;;;;5071362;28;20040;-76
2022/07/23 05:37:15;;;;;;;8.18;3.53;;;19.80;99.90;;;;;;5073560;28;20060;-76
2022/07/23 05:39:41;;;;;;;7.55;3.45;;;20.00;99.90;;;;;;5071610;28;20130;-76
2022/07/23 05:42:07;;;;;;;9.60;3.63;;;20.30;99.90;;;;;;5071326;28;20178;-81
2022/07/23 05:44:33;;;;;;;7.05;3.10;;;20.90;99.90;;;;;;5091386;28;20123;-77
2022/07/23 05:46:59;;;;;;;8.07;3.00;;;21.20;99.90;;;;;;5072946;28;20471;-76
2022/07/23 05:49:24;;;;;;;7.10;3.05;;;21.60;99.90;;;;;;5071168;28;20055;-76
2022/07/23 05:51:50;;;;;;;6.25;3.28;;;21.70;99.40;;;;;;5078598;28;20040;-76
2022/07/23 05:54:16;;;;;;;7.03;2.90;;;21.70;99.90;;;;;;5073288;28;20475;-74
2022/07/23 05:56:42;;;;;;;7.60;3.00;;;21.30;99.90;;;;;;5073184;28;20129;-76
2022/07/23 05:59:08;;;;;;;9.52;3.30;;;21.40;99.90;;;;;;5058957;28;20144;-74
2022/07/23 06:01:33;;;;;;;7.15;2.75;;;21.40;99.90;;;;;;5092407;28;20044;-77
2022/07/23 06:03:59;;;;;;;7.28;2.80;;;21.30;99.90;;;;;;5059084;28;20054;-76
2022/07/23 06:06:25;;;;;;;7.50;2.60;;;21.30;99.90;;;;;;5074700;28;20086;-75
2022/07/23 06:08:51;;;;;;;6.35;2.70;;;21.40;99.90;;;;;;5075328;28;20479;-76
2022/07/23 06:11:16;;;;;;;5.18;2.35;;;22.10;99.90;;;;;;5076195;28;20101;-75
2022/07/23 06:13:42;;;;;;;7.55;2.58;;;22.30;99.50;;;;;;5065715;28;20322;-77
2022/07/23 06:16:08;;;;;;;6.75;2.60;;;22.70;97.80;;;;;;5064890;28;20127;-78
2022/07/23 06:18:33;;;;;;;6.25;2.30;;;23.20;94.80;;;;;;5079318;28;20128;-78
2022/07/23 06:20:59;;;;;;;6.15;2.30;;;23.00;96.00;;;;;;5079151;28;20138;-78
2022/07/23 06:23:25;;;;;;;5.55;2.10;;;23.20;95.60;;;;;;5076111;28;20058;-77
2022/07/23 06:25:50;;;;;;;6.88;2.00;;;23.40;95.80;;;;;;5075698;28;20055;-75
2022/07/23 06:28:16;;;;;;;7.35;2.50;;;23.60;94.30;;;;;;5085954;28;20051;-78
2022/07/23 06:30:42;;;;;;;7.28;1.73;;;24.10;93.10;;;;;;5072343;28;20057;-77
2022/07/23 06:33:08;;;;;;;6.63;1.90;;;24.20;93.50;;;;;;5065575;28;20080;-79
2022/07/23 06:35:34;;;;;;;5.22;1.60;;;24.20;91.90;;;;;;5071657;28;20044;-76
2022/07/23 06:37:59;;;;;;;7.78;1.70;;;23.90;91.70;;;;;;5067224;28;20387;-76
2022/07/23 06:40:25;;;;;;;7.28;1.70;;;23.50;91.40;;;;;;5069070;28;20056;-78
2022/07/23 06:42:51;;;;;;;5.13;1.55;;;23.00;92.20;;;;;;5052008;28;20049;-76
2022/07/23 06:45:17;;;;;;;5.20;1.40;;;23.20;93.20;;;;;;5044643;28;20044;-71
2022/07/23 06:47:43;;;;;;;4.22;1.30;;;23.50;93.00;;;;;;5055241;28;20064;-77
2022/07/23 06:50:09;;;;;;;4.90;1.30;;;23.70;92.60;;;;;;5062809;28;20483;-78
2022/07/23 06:52:35;;;;;;;4.70;1.35;;;24.50;89.90;;;;;;5062380;28;20138;-78
2022/07/23 06:55:00;;;;;;;5.20;1.23;;;24.50;90.50;;;;;;5059819;28;20090;-79
2022/07/23 06:57:26;;;;;;;4.32;1.20;;;25.00;87.40;;;;;;5065864;28;20041;-78
2022/07/23 06:59:53;;;;;;;5.53;1.35;;;25.00;86.90;;;;;;5062184;28;20395;-79
2022/07/23 07:02:19;;;;;;;5.18;1.30;;;25.00;81.70;;;;;;5060997;28;20186;-80
2022/07/23 07:04:45;;;;;;;5.10;1.10;;;25.20;83.90;;;;;;5064074;28;20182;-80
2022/07/23 07:07:11;;;;;;;4.90;1.10;;;25.50;82.30;;;;;;5064658;28;20076;-77
2022/07/23 07:09:37;;;;;;;5.18;1.30;;;25.10;79.50;;;;;;5069007;28;20049;-79
2022/07/23 07:12:04;;;;;;;6.72;1.20;;;24.40;79.60;;;;;;5077319;28;20449;-78
2022/07/23 07:14:29;;;;;;;4.47;1.20;;;24.20;81.00;;;;;;5065904;28;20051;-77
2022/07/23 07:16:55;;;;;;;4.50;1.20;;;24.10;84.00;;;;;;5056230;28;20472;-81
2022/07/23 07:19:21;;;;;;;4.60;1.23;;;24.50;87.70;;;;;;5058979;28;20044;-78
2022/07/23 07:21:46;;;;;;;4.65;1.10;;;24.80;84.40;;;;;;5054827;28;20472;-79
2022/07/23 07:24:12;;;;;;;3.88;1.02;;;24.60;80.80;;;;;;5054553;28;20052;-72
2022/07/23 07:26:39;;;;;;;4.50;0.90;;;24.70;81.30;;;;;;5057945;28;20064;-78
2022/07/23 07:29:05;;;;;;;2.75;0.90;;;24.80;79.20;;;;;;5057687;28;20123;-77
2022/07/23 07:31:31;;;;;;;3.63;1.10;;;24.30;78.50;;;;;;5060468;28;20052;-78
2022/07/23 07:33:57;;;;;;;5.00;1.05;;;24.00;78.70;;;;;;5064688;28;20404;-77
2022/07/23 07:36:23;;;;;;;5.22;1.00;;;24.40;82.90;;;;;;5072268;28;20036;-78
2022/07/23 07:38:49;;;;;;;3.60;1.00;;;24.60;80.50;;;;;;5067817;28;20399;-77
2022/07/23 07:41:15;;;;;;;4.47;0.90;;;24.60;80.10;;;;;;5050750;28;20124;-79
2022/07/23 07:43:41;;;;;;;4.13;0.80;;;24.70;78.50;;;;;;5071714;28;20057;-75
2022/07/23 07:46:10;;;;;;;4.05;0.95;;;24.50;79.40;;;;;;5073687;28;20124;-81
2022/07/23 07:48:37;;;;;;;3.85;1.00;;;24.70;80.00;;;;;;5069526;28;20051;-79
2022/07/23 07:51:06;;;;;;;5.00;1.00;;;24.70;79.10;;;;;;5072459;28;20052;-77
2022/07/23 07:53:32;;;;;;;3.63;0.90;;;24.50;74.30;;;;;;5053872;28;20056;-77
2022/07/23 07:55:57;;;;;;;5.88;0.90;;;24.80;77.70;;;;;;5072721;28;20040;-79
2022/07/23 07:58:23;;;;;;;3.17;0.90;;;24.90;76.50;;;;;;5070574;28;20428;-75
2022/07/23 08:00:49;;;;;;;4.25;1.00;;;24.90;75.20;;;;;;5071042;28;20048;-74
2022/07/23 08:03:14;;;;;;;3.33;0.82;;;24.90;76.70;;;;;;5071355;28;20114;-75
2022/07/23 08:05:40;;;;;;;3.20;1.00;;;25.00;77.30;;;;;;5072289;28;20048;-74
2022/07/23 08:08:06;;;;;;;3.03;1.00;;;25.10;75.80;;;;;;5073478;28;20048;-76
2022/07/23 08:10:32;;;;;;;4.35;1.00;;;25.00;75.00;;;;;;5070868;28;20376;-76
2022/07/23 08:12:58;;;;;;;3.83;1.10;;;24.70;74.40;;;;;;5071960;28;20055;-78
2022/07/23 08:15:26;;;;;;;3.30;0.80;;;24.80;73.00;;;;;;5060386;28;20404;-77
2022/07/23 08:17:53;;;;;;;3.50;0.80;;;25.10;74.80;;;;;;5071879;28;20040;-75
2022/07/23 08:20:21;;;;;;;2.95;0.80;;;25.80;74.00;;;;;;5072559;28;20123;-74
2022/07/23 08:23:07;;;;;;;4.07;1.00;;;25.40;71.70;;;;;;5070445;28;20037;-76
2022/07/23 08:25:36;;;;;;;2.35;0.88;;;24.70;70.30;;;;;;5055297;28;20048;-77
2022/07/23 08:28:04;;;;;;;3.42;1.00;;;24.50;72.10;;;;;;5072044;28;20059;-78
2022/07/23 08:30:31;;;;;;;3.78;0.90;;;24.40;73.40;;;;;;5055410;28;20060;-77
2022/07/23 08:33:11;;;;;;;3.25;0.90;;;24.60;74.50;;;;;;5071231;28;20122;-76
2022/07/23 08:35:44;;;;;;;2.88;0.80;;;24.60;74.40;;;;;;5055602;28;20389;-74
2022/07/23 08:38:10;;;;;;;3.70;0.90;;;24.50;70.90;;;;;;5072133;28;20040;-77
2022/07/23 08:40:39;;;;;;;3.50;0.90;;;24.10;70.70;;;;;;5072034;28;20044;-76
2022/07/23 08:43:07;;;;;;;3.13;0.90;;;23.80;73.00;;;;;;5070991;28;20049;-73
2022/07/23 08:45:38;;;;;;;2.63;0.80;;;23.80;74.10;;;;;;5038635;28;20079;-77
2022/07/23 08:48:07;;;;;;;2.70;0.83;;;23.60;74.50;;;;;;5053604;28;20045;-78
2022/07/23 08:50:34;;;;;;;3.50;0.90;;;23.10;75.00;;;;;;5054405;28;20048;-78
2022/07/23 08:53:02;;;;;;;2.45;0.90;;;22.70;76.40;;;;;;5055884;28;20048;-76
2022/07/23 08:55:28;;;;;;;3.38;0.90;;;22.40;78.70;;;;;;5055236;28;20052;-74
2022/07/23 08:57:54;;;;;;;3.30;0.88;;;22.30;80.50;;;;;;5056084;28;20086;-76
2022/07/23 09:00:21;;;;;;;2.75;0.82;;;22.30;81.00;;;;;;5051496;28;20467;-75
2022/07/23 09:02:49;;;;;;;3.53;0.80;;;22.00;80.60;;;;;;5068076;28;20052;-77
2022/07/23 09:05:15;;;;;;;2.95;0.80;;;21.60;81.70;;;;;;5050550;28;21043;-77
2022/07/23 09:08:13;;;;;;;3.30;0.80;;;21.50;83.80;;;;;;5065319;28;20092;-77
2022/07/23 09:10:49;;;;;;;2.55;0.80;;;21.90;83.40;;;;;;5051528;28;20052;-78
2022/07/23 09:13:33;;;;;;;2.20;0.70;;;22.30;83.30;;;;;;5068683;28;20099;-76
2022/07/23 09:16:08;;;;;;;3.63;0.80;;;22.80;82.80;;;;;;5069716;28;20059;-73
2022/07/23 09:18:44;;;;;;;2.80;0.75;;;23.10;78.40;;;;;;5064823;28;20522;-75
2022/07/23 09:21:21;;;;;;;1.60;0.70;;;23.20;77.20;;;;;;5067275;28;20528;-76
2022/07/23 09:23:53;;;;;;;3.25;0.77;;;22.90;78.30;;;;;;5068463;28;20128;-77
2022/07/23 09:26:36;;;;;;;2.60;0.70;;;22.70;77.80;;;;;;5070234;28;20056;-76
2022/07/23 09:29:12;;;;;;;2.13;0.80;;;22.40;79.50;;;;;;5049928;28;20052;-77
2022/07/23 09:31:50;;;;;;;2.75;0.90;;;22.20;80.50;;;;;;5068356;28;20079;-80
2022/07/23 09:34:39;;;;;;;2.75;0.70;;;22.00;79.50;;;;;;5070876;28;20049;-72
2022/07/23 09:37:13;;;;;;;2.28;0.80;;;22.40;79.50;;;;;;5073226;28;20061;-74
2022/07/23 09:39:41;;;;;;;2.63;0.77;;;22.90;77.50;;;;;;5070044;28;20079;-79
2022/07/23 09:42:18;;;;;;;1.35;0.70;;;23.10;74.10;;;;;;5057296;28;20052;-78
2022/07/23 09:44:55;;;;;;;2.42;0.70;;;23.50;75.00;;;;;;5071265;28;20495;-79
2022/07/23 09:47:23;;;;;;;3.63;0.90;;;23.90;71.80;;;;;;5071571;28;20057;-77
2022/07/23 09:50:08;;;;;;;2.35;0.80;;;23.80;72.70;;;;;;5070928;28;20063;-78
2022/07/23 09:52:36;;;;;;;3.95;0.80;;;23.40;71.10;;;;;;5052104;28;20044;-80
2022/07/23 09:55:04;;;;;;;3.05;0.90;;;22.90;72.00;;;;;;5055383;28;20124;-75
2022/07/23 09:57:32;;;;;;;3.40;0.80;;;22.80;74.00;;;;;;5071403;28;20043;-81
2022/07/23 10:00:00;;;;;;;1.60;0.68;;;22.90;72.90;;;;;;5069479;28;20052;-81
2022/07/23 10:02:27;;;;;;;3.08;0.90;;;23.30;72.40;;;;;;5063089;28;20049;-78
2022/07/23 10:04:57;;;;;;;2.70;0.80;;;23.60;67.80;;;;;;5064438;28;20086;-73
2022/07/23 10:07:26;;;;;;;2.58;0.82;;;23.10;66.10;;;;;;5068603;28;20048;-74
2022/07/23 10:09:52;;;;;;;2.17;0.70;;;23.40;68.50;;;;;;5061463;28;20102;-78
2022/07/23 10:15:07;;;;;;;2.75;0.80;;;23.90;66.00;;;;;;5063299;28;20048;-81
2022/07/23 10:17:34;;;;;;;2.80;0.80;;;23.60;67.10;;;;;;5063320;28;20324;-79
2022/07/23 10:20:00;;;;;;;3.60;0.80;;;23.50;68.80;;;;;;5061403;28;20742;-79
2022/07/23 10:22:34;;;;;;;3.20;0.82;;;23.60;68.00;;;;;;5084807;28;20551;-79
2022/07/23 10:25:23;;;;;;;2.58;0.80;;;23.60;68.80;;;;;;5071318;28;20037;-78
2022/07/23 10:28:15;;;;;;;2.65;0.80;;;23.80;68.40;;;;;;5059551;28;20041;-75
2022/07/23 10:30:44;;;;;;;;;;;24.00;72.10;;;;;;5050069;28;20064;-77
2022/07/23 10:33:26;;;;;;;2.35;0.75;;;24.30;68.10;;;;;;5055153;28;20437;-79
2022/07/23 10:36:10;;;;;;;;;;;24.40;67.60;;;;;;5051743;28;20071;-78
2022/07/23 10:38:56;;;;;;;2.45;0.80;;;23.80;65.10;;;;;;5057291;28;20405;-79
2022/07/23 10:41:36;;;;;;;2.20;0.80;;;23.50;66.90;;;;;;5065029;28;20041;-78
2022/07/23 10:44:12;;;;;;;2.83;1.00;;;23.40;68.40;;;;;;5062946;28;20559;-79
2022/07/23 10:49:48;;;;;;;2.70;0.93;;;24.20;68.80;;;;;;5063473;28;20135;-80
2022/07/23 10:52:14;;;;;;;2.10;0.80;;;24.40;66.70;;;;;;5066170;28;20127;-76
2022/07/23 10:54:46;;;;;;;1.90;0.90;;;24.50;65.30;;;;;;5064571;28;20051;-78
2022/07/23 10:57:14;;;;;;;3.72;0.90;;;24.20;63.80;;;;;;5052783;28;20102;-79
2022/07/23 11:02:31;;;;;;;3.38;0.90;;;23.80;66.10;;;;;;5062574;28;20448;-78
2022/07/23 11:05:06;;;;;;;2.83;0.90;;;23.80;66.90;;;;;;5067198;28;20098;-77
2022/07/23 11:07:32;;;;;;;3.30;0.90;;;24.00;68.90;;;;;;5071052;28;20044;-76
2022/07/23 11:09:58;;;;;;;3.20;1.00;;;24.00;68.80;;;;;;5069669;28;20048;-78
2022/07/23 11:12:29;;;;;;;2.53;0.90;;;24.10;66.90;;;;;;5069531;28;20044;-78
2022/07/23 11:15:14;;;;;;;2.83;0.90;;;24.00;67.40;;;;;;5069157;28;20050;-78
2022/07/23 11:17:43;;;;;;;3.63;0.90;;;24.50;68.10;;;;;;5051274;28;20373;-81
2022/07/23 11:20:09;;;;;;;4.40;1.00;;;24.80;64.80;;;;;;5069295;28;20048;-79
2022/07/23 11:22:35;;;;;;;5.00;1.00;;;24.40;65.10;;;;;;5067661;28;20050;-77
2022/07/23 11:25:02;;;;;;;4.15;1.00;;;24.20;66.30;;;;;;5051926;28;20049;-77
2022/07/23 11:27:43;;;;;;;3.10;0.90;;;24.10;68.60;;;;;;5069291;28;20052;-79
2022/07/23 11:30:11;;;;;;;3.00;1.00;;;24.20;65.90;;;;;;5015888;28;1094194;-81
2022/07/23 11:32:38;;;;;;;2.33;0.90;;;24.20;66.60;;;;;;5056293;28;20539;-78
2022/07/23 11:35:27;;;;;;;3.13;0.93;;;24.00;68.00;;;;;;5073062;28;20101;-75
2022/07/23 11:38:03;;;;;;;2.72;1.00;;;23.80;67.90;;;;;;5077230;28;20502;-76
2022/07/23 11:40:28;;;;;;;3.92;1.10;;;23.40;67.90;;;;;;5074971;28;20052;-78
2022/07/23 11:42:56;;;;;;;3.35;1.00;;;22.90;68.20;;;;;;5024746;28;20051;-76
2022/07/23 11:45:23;;;;;;;3.45;1.00;;;22.60;70.10;;;;;;5072878;28;20043;-74
2022/07/23 11:47:49;;;;;;;4.18;1.02;;;22.40;71.70;;;;;;5073422;28;20435;-74
2022/07/23 11:50:15;;;;;;;2.55;1.00;;;22.30;71.40;;;;;;5056965;28;20120;-73
2022/07/23 11:52:40;;;;;;;2.60;1.02;;;22.60;75.00;;;;;;5058165;28;20410;-74
2022/07/23 11:55:09;;;;;;;3.65;1.10;;;23.00;74.40;;;;;;5065474;28;20131;-75
2022/07/23 11:57:40;;;;;;;3.33;1.10;;;23.20;73.80;;;;;;5071317;28;20055;-78
2022/07/23 12:00:09;;;;;;;3.45;1.10;;;23.20;71.40;;;;;;5067427;28;20078;-75
2022/07/23 12:02:35;;;;;;;3.28;1.10;;;23.10;71.80;;;;;;5073714;28;20052;-73
2022/07/23 12:05:01;;;;;;;2.83;1.08;;;23.20;72.30;;;;;;5091675;28;20066;-75
2022/07/23 12:07:29;;;;;;;4.43;1.20;;;23.00;73.00;;;;;;5072653;28;20333;-74
2022/07/23 12:09:57;;;;;;;3.13;1.13;;;23.00;72.80;;;;;;5074434;28;20044;-76
2022/07/23 12:12:23;;;;;;;3.28;1.10;;;23.00;73.40;;;;;;5073776;28;20072;-76
2022/07/23 12:14:54;;;;;;;2.97;1.10;;;23.00;71.80;;;;;;5074190;28;20101;-76
2022/07/23 12:17:21;;;;;;;3.83;1.27;;;23.00;72.00;;;;;;5052991;28;20641;-80
2022/07/23 12:19:48;;;;;;;3.72;1.15;;;23.20;72.90;;;;;;5073969;28;20047;-75
2022/07/23 12:22:14;;;;;;;3.40;1.20;;;23.40;74.40;;;;;;5073936;28;20070;-78
2022/07/23 12:24:59;;;;;;;3.55;1.08;;;23.50;73.30;;;;;;5074284;28;20127;-76
2022/07/23 12:27:27;;;;;;;3.60;1.20;;;23.40;73.90;;;;;;5069875;28;20101;-76
2022/07/23 12:29:53;;;;;;;3.00;1.13;;;23.40;73.70;;;;;;5074599;28;20394;-75
2022/07/23 12:32:24;;;;;;;3.30;1.40;;;23.50;73.50;;;;;;5071067;28;20067;-75
2022/07/23 12:35:08;;;;;;;3.92;1.52;;;23.40;71.20;;;;;;5060136;28;20559;-74
2022/07/23 12:37:40;;;;;;;4.13;1.42;;;23.50;72.60;;;;;;5071675;28;20058;-76
2022/07/23 12:40:45;;;;;;;3.10;1.27;;;23.80;73.30;;;;;;5072479;28;20401;-75
2022/07/23 12:43:32;;;;;;;4.35;1.30;;;24.20;73.40;;;;;;5061672;28;20550;-78
2022/07/23 12:46:04;;;;;;;4.30;1.50;;;24.50;70.90;;;;;;5070276;28;20060;-76
2022/07/23 12:48:30;;;;;;;;;;;24.10;69.80;;;;;;5084118;28;20123;-77
2022/07/23 12:51:01;;;;;;;4.60;1.55;;;23.90;70.40;;;;;;5084960;28;19927;-77
2022/07/23 12:53:29;;;;;;;3.83;1.40;;;23.80;70.90;;;;;;5063777;28;20052;-76
2022/07/23 12:56:07;;;;;;;3.55;1.30;;;23.50;71.60;;;;;;5057053;28;20067;-76
2022/07/23 12:58:49;;;;;;;4.15;1.40;;;23.60;73.90;;;;;;5052578;28;20054;-77
2022/07/23 13:01:21;;;;;;;4.40;1.50;;;23.70;72.20;;;;;;5068183;28;20044;-76